• Join FlightAware (Why Join?)
  • Login
  • US Flag 
01:50AM EST


 

Airport Tracker/Info


-or-


 

Live Flight TrackerFlight Track Log ✈ FLG3730 ✈ 15-May-2013 ✈ KCVG - KMSP

Flight Track Log - Related Links

Times and Time Zones

All times are in EDT time to prevent confusion due to time zone crossing. See the FLG3730 flight status page for this flight to view local times or setup timezone preferences in your user account.

Time Position Orientation Groundspeed Altitude Reporting Facility
EDT Latitude Longitude Course Direction KTS MPH feet Rate Location/Type
05:47PM 39.0333 -84.6833 293° West 156 180 1,600  Level Cincinnati TRACON
05:47PM 39.0333 -84.6833 322° Northwest 147 169 2,100 1,020 Climbing Cincinnati TRACON
05:48PM 39.0500 -84.7667 284° West 258 297 3,000 1,740 Climbing Cincinnati TRACON
05:49PM 39.0667 -84.8500 284° West 251 289 5,600 2,640 Climbing Cincinnati TRACON
05:50PM 38.9926 -84.9061 312° West  Level FlightAware Approximate
05:50PM 39.0833 -84.9333 284° West 261 300 8,300  Level Cincinnati TRACON
05:51PM 39.0576 -85.0031 311° West  Level FlightAware Approximate
05:51PM 39.1136 -85.0269 293° West 265 305 10,300  Level Indianapolis Center
05:52PM 39.1051 -85.1153 293° West  Level FlightAware Approximate
05:52PM 39.1456 -85.1517 288° West 308 354 11,500  Level Indianapolis Center
05:53PM 39.1764 -85.2644 289° West 330 380 12,900 1,500 Climbing Indianapolis Center
05:54PM 39.2064 -85.3806 288° West 340 391 14,700 1,500 Climbing Indianapolis Center
05:55PM 39.2600 -85.4808 305° West 341 392 16,100 1,200 Climbing Indianapolis Center
05:56PM 39.3219 -85.5778 310° West 347 399 17,200 1,200 Climbing Indianapolis Center
05:57PM 39.3978 -85.6986 309° West 362 417 18,700 1,140 Climbing Indianapolis Center
05:58PM 39.4625 -85.8011 309° West 368 423 19,600 960 Climbing Indianapolis Center
05:59PM 39.5164 -85.9158 301° West 375 432 20,700 960 Climbing Indianapolis Center
06:00PM 39.5572 -86.0378 294° West 370 426 21,600 780 Climbing Indianapolis Center
06:02PM 39.5967 -86.1664 292° West 379 436 22,400 720 Climbing Indianapolis Center
06:03PM 39.6581 -86.2781 306° West 388 447 23,100 660 Climbing Indianapolis Center
06:04PM 39.7397 -86.3806 316° Northwest 392 451 23,800 660 Climbing Indianapolis Center
06:05PM 39.8194 -86.4844 315° West 396 456 24,500 660 Climbing Indianapolis Center
06:06PM 39.8981 -86.5844 316° Northwest 395 455 25,200 600 Climbing Indianapolis Center
06:07PM 39.9925 -86.7061 315° West 399 459 25,800 540 Climbing Indianapolis Center
06:08PM 40.0914 -86.7772 331° Northwest 408 470 26,400 540 Climbing Indianapolis Center
06:09PM 40.1967 -86.8383 336° Northwest 414 476 26,900 480 Climbing Chicago Center
06:10PM 40.3072 -86.8889 341° North 420 483 27,400 480 Climbing Chicago Center
06:11PM 40.4167 -86.9414 340° North 422 486 27,900 480 Climbing Chicago Center
06:12PM 40.5267 -86.9925 341° North 424 488 28,400 480 Climbing Chicago Center
06:13PM 40.6367 -87.0450 340° North 424 488 28,900 480 Climbing Chicago Center
06:14PM 40.7508 -87.1011 340° North 419 482 29,400 480 Climbing Chicago Center
06:15PM 40.8819 -87.1633 340° North 422 486 30,000 240 Climbing Chicago Center
06:16PM 40.9919 -87.2158 340° North 424 488 30,000  Level Chicago Center
06:17PM 41.1031 -87.2686 340° North 428 493 30,000  Level Chicago Center
06:18PM 41.2136 -87.3231 340° North 428 493 30,000  Level Chicago Center
06:19PM 41.3211 -87.3778 339° North 421 484 30,000  Level Chicago Center
06:20PM 41.4528 -87.4419 340° North 423 487 30,000  Level Chicago Center
06:21PM 41.5608 -87.4947 340° North 421 484 30,000  Level Chicago Center
06:22PM 41.6683 -87.5486 339° North 420 483 30,000  Level Chicago Center
06:23PM 41.7753 -87.6031 339° North 417 480 30,000  Level Chicago Center
06:24PM 41.9014 -87.6633 340° North 407 468 30,000  Level Chicago Center
06:26PM 42.0302 -87.7263 340° North  Level FlightAware Approximate
06:26PM 42.1106 -87.7700 340° North 406 467 30,000  Level Chicago Center
06:27PM 42.2153 -87.8225 340° North 405 466 30,000  Level Chicago Center
06:28PM 42.3300 -87.8814 339° North 404 465 30,000  Level Chicago Center
06:29PM 42.4358 -87.9336 340° North 404 465 30,000  Level Chicago Center
06:30PM 42.5611 -87.9981 339° North 412 474 30,000  Level Chicago Center
06:31PM 42.6625 -88.0669 333° Northwest 407 468 30,000  Level Chicago Center
06:32PM 42.7431 -88.1731 316° Northwest 402 463 30,000  Level Chicago Center
06:34PM 42.8231 -88.2783 316° Northwest 397 457 30,000  Level Chicago Center
06:35PM 42.9039 -88.3831 317° Northwest 397 457 30,000  Level Chicago Center
06:36PM 42.9839 -88.4875 316° Northwest 396 456 30,000  Level Chicago Center
06:37PM 43.0772 -88.6103 316° Northwest 395 455 30,000  Level Chicago Center
06:38PM 43.1550 -88.7144 316° Northwest 390 449 30,000  Level Chicago Center
06:39PM 43.2331 -88.8175 316° Northwest 387 445 30,000  Level Chicago Center
06:40PM 43.3114 -88.9206 316° Northwest 386 444 30,000  Level Chicago Center
06:41PM 43.3881 -89.0239 316° Northwest 385 443 30,000  Level Chicago Center
06:42PM 43.4653 -89.1278 316° Northwest 385 443 30,000  Level Chicago Center
06:43PM 43.5414 -89.2289 316° Northwest 381 438 30,000  Level Chicago Center
06:44PM 43.6300 -89.3478 316° Northwest 381 438 30,000  Level Chicago Center
06:45PM 43.6925 -89.4325 316° Northwest 379 436 30,000  Level Minneapolis Center
06:46PM 43.7658 -89.5350 315° West 374 430 30,000  Level Minneapolis Center
06:47PM 43.8528 -89.6528 316° Northwest 374 430 30,000  Level Minneapolis Center
06:48PM 43.9275 -89.7533 316° Northwest 374 430 30,000  Level Minneapolis Center
06:49PM 44.0006 -89.8547 315° West 372 428 30,000  Level Minneapolis Center
06:50PM 44.0706 -89.9517 315° West 360 414 30,000  Level Minneapolis Center
06:51PM 44.1283 -90.0550 308° West 341 392 30,000  Level Minneapolis Center
06:52PM 44.1958 -90.1764 308° West 340 391 30,000  Level Minneapolis Center
06:53PM 44.2553 -90.2828 308° West 347 399 30,000 -540 Level Minneapolis Center
06:54PM 44.3150 -90.3903 308° West 350 403 28,900 -1,260 Descending Minneapolis Center
06:55PM 44.3719 -90.4972 307° West 345 397 27,400 -1,260 Descending Minneapolis Center
06:56PM 44.4183 -90.6167 299° West 349 402 26,400 -1,020 Descending Minneapolis Center
06:57PM 44.4644 -90.7383 298° West 353 406 25,400 -1,080 Descending Minneapolis Center
06:58PM 44.5208 -90.8822 299° West 360 414 24,200 -720 Descending Minneapolis Center
06:59PM 44.5675 -91.0047 298° West 352 405 24,000 -120 Descending Minneapolis Center
07:00PM 44.6136 -91.1225 299° West 348 400 24,000  Level Minneapolis Center
07:01PM 44.6567 -91.2408 297° West 345 397 24,000  Level Minneapolis Center
07:03PM 44.7122 -91.3903 298° West 351 404 24,000 -480 Level Minneapolis Center
07:04PM 44.7619 -91.5178 299° West 362 417 23,000 -1,680 Descending Minneapolis Center
07:05PM 44.8206 -91.6683 299° West 367 422 20,600 -2,160 Descending Minneapolis Center
07:06PM 44.8656 -91.7864 298° West 353 406 18,600 -1,980 Descending Minneapolis Center
07:07PM 44.9075 -91.9028 297° West 339 390 16,600 -1,860 Descending Minneapolis Center
07:08PM 44.9506 -92.0181 298° West 335 386 14,800 -1,680 Descending Minneapolis Center
07:09PM 44.9936 -92.1336 298° West 333 383 13,100 -1,740 Descending Minneapolis Center
07:10PM 45.0425 -92.2708 297° West 331 381 11,200 -1,260 Descending Minneapolis Center
07:11PM 45.0317 -92.3969 263° West 324 373 10,600 -1,020 Descending Minneapolis Center
07:12PM 45.0131 -92.5014 256° West 275 316 9,100 -1,440 Descending Minneapolis Center
07:13PM 44.9703 -92.5761 231° Southwest 242 278 7,700 -1,020 Descending Minneapolis Center
07:14PM 44.9306 -92.6478 232° Southwest 232 267 7,000 -360 Descending Minneapolis Center
07:15PM 44.8906 -92.7194 232° Southwest 233 268 7,000 -660 Level Minneapolis Center
07:16PM 44.8189 -92.7597 202° Southwest 242 278 5,700 -1,140 Descending Minneapolis Center
07:17PM 44.7847 -92.8075 225° Southwest 197 227 4,700 -840 Descending Minneapolis Center
07:18PM 44.7925 -92.8803 279° West 187 215 4,000 -360 Descending Minneapolis Center
07:19PM 44.8019 -92.9417 282° West 165 190 4,000 -240 Level Minneapolis Center
07:20PM 44.8094 -93.0050 279° West 165 190 3,600 -420 Descending Minneapolis Center